createdAt,value
2022-12-18T00:01:29.578Z,101668.41
2022-12-18T00:03:57.100Z,101661.25
2022-12-18T00:06:25.984Z,101666.69
2022-12-18T00:08:53.268Z,101674.53
2022-12-18T00:11:22.858Z,101676.97
2022-12-18T00:13:50.930Z,101680.81
2022-12-18T00:16:23.650Z,101678.88
2022-12-18T00:18:53.350Z,101686.16
2022-12-18T00:21:21.474Z,101689.03
2022-12-18T00:23:49.582Z,101689.28
2022-12-18T00:26:20.537Z,101692.66
2022-12-18T00:28:47.801Z,101689.41
2022-12-18T00:31:20.801Z,101688.81
2022-12-18T00:33:49.073Z,101697.03
2022-12-18T00:36:23.085Z,101706.44
2022-12-18T00:38:52.747Z,101710.78
2022-12-18T00:41:39.920Z,101705.97
2022-12-18T00:44:08.749Z,101702.81
2022-12-18T00:46:35.666Z,101708.59
2022-12-18T00:49:03.564Z,101699.41
2022-12-18T00:51:30.466Z,101704.63
2022-12-18T00:53:57.341Z,101721.72
2022-12-18T00:56:25.299Z,101717.75
2022-12-18T00:58:53.437Z,101716.50
2022-12-18T01:01:20.968Z,101716.59
2022-12-18T01:03:47.990Z,101720.34
2022-12-18T01:06:17.799Z,101722.34
2022-12-18T01:08:45.412Z,101725.13
2022-12-18T01:11:23.162Z,101727.50
2022-12-18T01:13:50.347Z,101724.84
2022-12-18T01:16:18.337Z,101731.97
2022-12-18T01:18:45.789Z,101730.53
2022-12-18T01:21:15.841Z,101734.75
2022-12-18T01:23:43.333Z,101725.31
2022-12-18T01:26:13.216Z,101737.25
2022-12-18T01:28:41.148Z,101744.84
2022-12-18T01:31:34.529Z,101748.69
2022-12-18T01:34:04.506Z,101747.69
2022-12-18T01:36:34.359Z,101746.13
2022-12-18T01:39:11.886Z,101744.44
2022-12-18T01:42:12.126Z,101756.88
2022-12-18T01:45:06.202Z,101751.31
2022-12-18T01:47:53.909Z,101754.22
2022-12-18T01:50:28.738Z,101753.25
2022-12-18T01:53:05.628Z,101764.06
2022-12-18T01:55:40.942Z,101768.19
2022-12-18T01:58:08.421Z,101772.28
2022-12-18T02:00:38.103Z,101765.41
2022-12-18T02:03:05.536Z,101763.22
2022-12-18T02:05:46.266Z,101769.66
2022-12-18T02:08:43.928Z,101774.09
2022-12-18T02:11:38.955Z,101770.38
2022-12-18T02:14:33.355Z,101781.22
2022-12-18T02:17:19.934Z,101789.59
2022-12-18T02:20:06.648Z,101795.66
2022-12-18T02:22:43.358Z,101797.47
2022-12-18T02:25:51.416Z,101809.19
2022-12-18T02:28:21.994Z,101800.09
2022-12-18T02:30:52.478Z,101801.19
2022-12-18T02:33:22.040Z,101801.09
2022-12-18T02:35:54.098Z,101795.28
2022-12-18T02:38:21.948Z,101790.88
2022-12-18T02:40:56.980Z,101798.09
2022-12-18T02:43:25.052Z,101811.25
2022-12-18T02:45:57.316Z,101812.31
2022-12-18T02:48:35.148Z,101817.31
2022-12-18T02:51:02.096Z,101810.97
2022-12-18T02:53:46.442Z,101819.25
2022-12-18T02:56:20.025Z,101820.31
2022-12-18T02:59:34.974Z,101828.25
2022-12-18T03:02:14.136Z,101826.34
2022-12-18T03:04:48.569Z,101831.09
2022-12-18T03:07:24.532Z,101822.84
2022-12-18T03:09:59.478Z,101828.03
2022-12-18T03:12:40.763Z,101832.47
2022-12-18T03:15:43.659Z,101836.72
2022-12-18T03:18:21.410Z,101834.69
2022-12-18T03:20:53.423Z,101840.63
2022-12-18T03:23:27.174Z,101837.84
2022-12-18T03:25:57.824Z,101834.28
2022-12-18T03:28:31.595Z,101834.50
2022-12-18T03:31:04.013Z,101827.41
2022-12-18T03:33:47.510Z,101829.53
2022-12-18T03:36:15.786Z,101842.44
2022-12-18T03:38:42.884Z,101850.59
2022-12-18T03:41:25.430Z,101853.22
2022-12-18T03:44:13.933Z,101846.03
2022-12-18T03:46:46.525Z,101847.75
2022-12-18T03:49:18.085Z,101862.44
2022-12-18T03:52:01.092Z,101858.66
2022-12-18T03:54:31.239Z,101864.25
2022-12-18T03:57:12.991Z,101866.16
2022-12-18T03:59:41.142Z,101859.91
2022-12-18T04:02:10.472Z,101865.22
2022-12-18T04:04:40.745Z,101869.41
2022-12-18T04:07:08.669Z,101868.19
2022-12-18T04:09:40.355Z,101868.91
2022-12-18T04:12:09.899Z,101875.38
2022-12-18T04:14:36.948Z,101884.78
2022-12-18T04:17:07.374Z,101886.47
2022-12-18T04:19:34.569Z,101893.44
2022-12-18T04:22:02.967Z,101898.34
2022-12-18T04:24:35.288Z,101894.63
2022-12-18T04:27:08.850Z,101900.97
2022-12-18T04:29:42.372Z,101892.28
2022-12-18T04:32:10.071Z,101889.63
2022-12-18T04:34:38.013Z,101891.75
2022-12-18T04:37:05.473Z,101892.69
2022-12-18T04:39:33.285Z,101896.81
2022-12-18T04:42:05.887Z,101907.53
2022-12-18T04:44:32.847Z,101911.22
2022-12-18T04:46:59.630Z,101917.13
2022-12-18T04:49:26.482Z,101917.44
2022-12-18T04:51:54.662Z,101911.69
2022-12-18T04:54:22.179Z,101920.00
2022-12-18T04:56:49.881Z,101922.19
2022-12-18T04:59:16.921Z,101930.41
2022-12-18T05:01:44.029Z,101933.34
2022-12-18T05:04:11.474Z,101932.91
2022-12-18T05:06:38.421Z,101934.38
2022-12-18T05:09:05.337Z,101932.63
2022-12-18T05:11:32.862Z,101941.75
2022-12-18T05:13:59.662Z,101947.34
2022-12-18T05:16:26.524Z,101942.50
2022-12-18T05:18:53.563Z,101941.59
2022-12-18T05:21:20.364Z,101947.72
2022-12-18T05:23:47.306Z,101959.41
2022-12-18T05:26:18.360Z,101974.25
2022-12-18T05:28:46.101Z,101966.69
2022-12-18T05:31:13.084Z,101974.16
2022-12-18T05:33:40.278Z,101972.75
2022-12-18T05:36:09.003Z,101974.41
2022-12-18T05:38:37.640Z,101977.81
2022-12-18T05:41:06.165Z,101984.72
2022-12-18T05:43:36.045Z,101990.28
2022-12-18T05:46:07.509Z,102003.09
2022-12-18T05:48:34.986Z,101997.53
2022-12-18T05:51:08.119Z,102000.84
2022-12-18T05:53:36.411Z,102009.41
2022-12-18T05:56:05.779Z,102013.94
2022-12-18T05:58:33.696Z,102022.22
2022-12-18T06:01:08.550Z,102035.38
2022-12-18T06:03:35.554Z,102022.78
2022-12-18T06:06:02.984Z,102035.28
2022-12-18T06:08:29.990Z,102042.19
2022-12-18T06:10:56.822Z,102051.78
2022-12-18T06:13:23.746Z,102042.06
2022-12-18T06:15:50.662Z,102037.44
2022-12-18T06:18:17.493Z,102041.84
2022-12-18T06:20:44.314Z,102044.13
2022-12-18T06:23:11.197Z,102043.28
2022-12-18T06:25:39.654Z,102047.81
2022-12-18T06:28:06.697Z,102057.38
2022-12-18T06:30:33.486Z,102045.47
2022-12-18T06:33:00.305Z,102045.38
2022-12-18T06:35:27.193Z,102034.97
2022-12-18T06:37:54.173Z,102046.59
2022-12-18T06:40:21.275Z,102043.31
2022-12-18T06:42:48.072Z,102049.63
2022-12-18T06:45:17.668Z,102046.91
2022-12-18T06:47:44.801Z,102062.56
2022-12-18T06:50:13.205Z,102066.75
2022-12-18T06:52:41.371Z,102073.03
2022-12-18T06:55:09.943Z,102064.72
2022-12-18T06:57:36.824Z,102070.94
2022-12-18T07:00:05.480Z,102078.72
2022-12-18T07:02:32.568Z,102076.06
2022-12-18T07:04:59.707Z,102070.03
2022-12-18T07:07:26.565Z,102075.03
2022-12-18T07:09:53.396Z,102087.28
2022-12-18T07:12:20.414Z,102072.00
2022-12-18T07:14:47.250Z,102084.00
2022-12-18T07:17:14.213Z,102093.06
2022-12-18T07:19:41.010Z,102093.25
2022-12-18T07:22:07.788Z,102091.19
2022-12-18T07:24:35.672Z,102093.09
2022-12-18T07:27:02.997Z,102095.72
2022-12-18T07:29:29.942Z,102092.22
2022-12-18T07:31:56.880Z,102097.50
2022-12-18T07:34:23.783Z,102103.66
2022-12-18T07:36:50.550Z,102102.50
2022-12-18T07:39:17.319Z,102112.25
2022-12-18T07:41:47.576Z,102122.72
2022-12-18T07:44:16.506Z,102124.13
2022-12-18T07:46:43.278Z,102123.75
2022-12-18T07:49:10.117Z,102133.97
2022-12-18T07:51:37.148Z,102122.72
2022-12-18T07:54:04.322Z,102130.56
2022-12-18T07:56:31.678Z,102136.41
2022-12-18T07:59:00.276Z,102131.97
2022-12-18T08:01:27.596Z,102136.91
2022-12-18T08:03:54.837Z,102149.72
2022-12-18T08:06:23.772Z,102153.50
2022-12-18T08:08:55.794Z,102154.38
2022-12-18T08:11:25.064Z,102163.34
2022-12-18T08:13:52.588Z,102166.72
2022-12-18T08:16:20.145Z,102159.81
2022-12-18T08:18:47.839Z,102152.78
2022-12-18T08:21:24.168Z,102160.03
2022-12-18T08:23:52.856Z,102149.25
2022-12-18T08:26:20.986Z,102154.47
2022-12-18T08:28:48.190Z,102153.91
2022-12-18T08:31:15.183Z,102160.88
2022-12-18T08:33:42.820Z,102159.47
2022-12-18T08:36:11.264Z,102156.81
2022-12-18T08:38:38.282Z,102161.34
2022-12-18T08:41:10.585Z,102167.13
2022-12-18T08:43:55.956Z,102157.28
2022-12-18T08:46:24.896Z,102166.16
2022-12-18T08:48:52.984Z,102165.28
2022-12-18T08:51:20.243Z,102164.81
2022-12-18T08:53:47.811Z,102168.81
2022-12-18T08:56:15.580Z,102170.97
2022-12-18T08:58:43.053Z,102175.09
2022-12-18T09:01:11.919Z,102175.09
2022-12-18T09:03:40.232Z,102178.97
2022-12-18T09:06:07.990Z,102180.09
2022-12-18T09:08:34.923Z,102186.63
2022-12-18T09:11:01.852Z,102179.78
2022-12-18T09:13:28.776Z,102187.25
2022-12-18T09:15:57.038Z,102184.53
2022-12-18T09:18:24.795Z,102186.13
2022-12-18T09:20:54.119Z,102181.22
2022-12-18T09:23:22.127Z,102184.72
2022-12-18T09:25:49.425Z,102192.69
2022-12-18T09:28:22.052Z,102193.22
2022-12-18T09:30:50.462Z,102184.84
2022-12-18T09:33:18.440Z,102178.63
2022-12-18T09:35:46.906Z,102170.25
2022-12-18T09:38:17.051Z,102179.09
2022-12-18T09:40:46.484Z,102163.41
2022-12-18T09:43:20.646Z,102163.16
2022-12-18T09:45:55.235Z,102160.44
2022-12-18T09:48:29.422Z,102162.66
2022-12-18T09:51:03.488Z,102164.22
2022-12-18T09:53:36.043Z,102169.31
2022-12-18T09:56:13.433Z,102168.47
2022-12-18T09:58:48.964Z,102152.66
2022-12-18T10:01:21.281Z,102155.50
2022-12-18T10:03:48.833Z,102157.09
2022-12-18T10:06:38.176Z,102154.78
2022-12-18T10:09:38.135Z,102151.28
2022-12-18T10:12:14.902Z,102164.34
2022-12-18T10:15:01.007Z,102162.13
2022-12-18T10:17:52.692Z,102156.38
2022-12-18T10:20:42.532Z,102147.81
2022-12-18T10:23:27.453Z,102156.69
2022-12-18T10:26:02.304Z,102155.22
2022-12-18T10:28:31.257Z,102154.25
2022-12-18T10:30:58.261Z,102149.69
2022-12-18T10:33:30.660Z,102151.94
2022-12-18T10:35:57.544Z,102144.19
2022-12-18T10:38:31.417Z,102142.38
2022-12-18T10:41:01.147Z,102138.88
2022-12-18T10:43:34.242Z,102134.25
2022-12-18T10:46:21.794Z,102131.63
2022-12-18T10:48:48.667Z,102131.53
2022-12-18T10:51:31.730Z,102126.31
2022-12-18T10:54:01.716Z,102120.94
2022-12-18T10:56:32.375Z,102131.13
2022-12-18T10:59:05.913Z,102135.75
2022-12-18T11:01:55.235Z,102124.47
2022-12-18T11:04:31.323Z,102116.84
2022-12-18T11:07:02.834Z,102116.66
2022-12-18T11:09:37.792Z,102119.41
2022-12-18T11:12:19.420Z,102119.72
2022-12-18T11:14:54.874Z,102111.97
2022-12-18T11:17:36.907Z,102112.38
2022-12-18T11:20:08.259Z,102113.88
2022-12-18T11:22:37.665Z,102104.50
2022-12-18T11:28:03.601Z,102106.75
2022-12-18T11:30:33.455Z,102103.00
2022-12-18T11:33:09.672Z,102101.47
2022-12-18T11:35:43.325Z,102096.72
2022-12-18T11:38:22.002Z,102094.94
2022-12-18T11:40:57.515Z,102087.59
2022-12-18T11:43:43.493Z,102092.94
2022-12-18T11:46:19.642Z,102091.53
2022-12-18T11:49:07.680Z,102087.56
2022-12-18T11:52:11.118Z,102097.34
2022-12-18T11:54:38.064Z,102107.78
2022-12-18T11:57:23.185Z,102104.16
2022-12-18T12:00:16.041Z,102099.78
2022-12-18T12:03:04.061Z,102092.13
2022-12-18T12:05:58.265Z,102096.28
2022-12-18T12:08:57.829Z,102093.13
2022-12-18T12:12:12.183Z,102080.72
2022-12-18T12:14:50.923Z,102072.75
2022-12-18T12:17:44.235Z,102075.28
2022-12-18T12:20:28.516Z,102080.66
2022-12-18T12:23:16.398Z,102076.91
2022-12-18T12:25:50.745Z,102074.59
2022-12-18T12:28:40.484Z,102068.59
2022-12-18T12:31:45.628Z,102063.06
2022-12-18T12:34:14.942Z,102060.25
2022-12-18T12:36:53.738Z,102063.88
2022-12-18T12:39:29.347Z,102071.03
2022-12-18T12:42:15.541Z,102053.34
2022-12-18T12:44:52.756Z,102054.25
2022-12-18T12:47:32.298Z,102059.91
2022-12-18T12:50:04.733Z,102053.31
2022-12-18T12:52:44.543Z,102051.28
2022-12-18T12:55:20.168Z,102047.81
2022-12-18T12:58:21.070Z,102042.69
2022-12-18T13:01:24.178Z,102056.19
2022-12-18T13:04:06.381Z,102058.72
2022-12-18T13:06:57.009Z,102058.84
2022-12-18T13:09:24.759Z,102056.31
2022-12-18T13:12:10.039Z,102060.06
2022-12-18T13:14:39.900Z,102062.66
2022-12-18T13:17:30.188Z,102069.47
2022-12-18T13:20:12.196Z,102068.03
2022-12-18T13:22:45.207Z,102068.13
2022-12-18T13:25:36.865Z,102082.56
2022-12-18T13:28:09.693Z,102079.44
2022-12-18T13:30:36.703Z,102086.22
2022-12-18T13:33:15.281Z,102084.81
2022-12-18T13:35:53.898Z,102078.75
2022-12-18T13:38:33.645Z,102080.31
2022-12-18T13:41:18.659Z,102078.59
2022-12-18T13:43:50.307Z,102081.34
2022-12-18T13:46:42.701Z,102076.28
2022-12-18T13:49:15.466Z,102075.78
2022-12-18T13:51:49.330Z,102070.22
2022-12-18T13:54:22.147Z,102077.50
2022-12-18T13:56:50.104Z,102073.38
2022-12-18T13:59:27.506Z,102066.72
2022-12-18T14:02:02.999Z,102078.91
2022-12-18T14:04:36.777Z,102090.44
2022-12-18T14:07:23.039Z,102089.84
2022-12-18T14:10:12.085Z,102093.25
2022-12-18T14:12:57.618Z,102102.88
2022-12-18T14:15:27.718Z,102107.16
2022-12-18T14:18:01.184Z,102118.94
2022-12-18T14:20:33.723Z,102116.38
2022-12-18T14:23:01.670Z,102121.28
2022-12-18T14:25:31.135Z,102124.09
2022-12-18T14:28:15.553Z,102124.31
2022-12-18T14:30:45.116Z,102119.69
2022-12-18T14:33:17.088Z,102121.13
2022-12-18T14:36:06.770Z,102123.53
2022-12-18T14:38:41.056Z,102123.88
2022-12-18T14:41:16.239Z,102127.19
2022-12-18T14:43:49.092Z,102126.03
2022-12-18T14:46:38.099Z,102122.94
2022-12-18T14:49:20.018Z,102120.66
2022-12-18T14:51:52.664Z,102129.13
2022-12-18T14:54:21.458Z,102132.09
2022-12-18T14:56:58.880Z,102138.34
2022-12-18T14:59:28.181Z,102147.16
2022-12-18T15:01:55.059Z,102148.66
2022-12-18T15:04:42.065Z,102152.88
2022-12-18T15:07:11.445Z,102147.56
2022-12-18T15:09:40.601Z,102152.03
2022-12-18T15:12:24.334Z,102151.38
2022-12-18T15:14:51.190Z,102161.44
2022-12-18T15:17:23.232Z,102161.34
2022-12-18T15:19:54.601Z,102153.78
2022-12-18T15:22:28.776Z,102160.84
2022-12-18T15:24:57.678Z,102157.53
2022-12-18T15:27:37.166Z,102165.97
2022-12-18T15:30:09.970Z,102170.16
2022-12-18T15:32:43.181Z,102158.69
2022-12-18T15:35:10.103Z,102157.19
2022-12-18T15:37:37.052Z,102170.19
2022-12-18T15:40:04.843Z,102173.53
2022-12-18T15:42:50.177Z,102170.75
2022-12-18T15:45:17.464Z,102175.56
2022-12-18T15:47:45.855Z,102173.19
2022-12-18T15:50:12.724Z,102164.25
2022-12-18T15:52:47.764Z,102172.91
2022-12-18T15:55:35.645Z,102185.59
2022-12-18T15:58:03.652Z,102184.34
2022-12-18T16:00:30.798Z,102177.03
2022-12-18T16:02:57.831Z,102174.94
2022-12-18T16:05:25.518Z,102190.13
2022-12-18T16:07:52.335Z,102185.88
2022-12-18T16:10:19.239Z,102191.59
2022-12-18T16:12:46.635Z,102196.97
2022-12-18T16:15:18.451Z,102189.31
2022-12-18T16:17:49.152Z,102187.06
2022-12-18T16:20:22.059Z,102182.03
2022-12-18T16:22:50.558Z,102180.13
2022-12-18T16:25:23.798Z,102174.94
2022-12-18T16:27:51.497Z,102181.28
2022-12-18T16:30:21.644Z,102183.94
2022-12-18T16:32:48.688Z,102181.94
2022-12-18T16:35:17.418Z,102184.97
2022-12-18T16:37:44.876Z,102196.09
2022-12-18T16:40:14.482Z,102188.56
2022-12-18T16:42:42.906Z,102198.94
2022-12-18T16:45:12.530Z,102198.47
2022-12-18T16:47:39.466Z,102206.22
2022-12-18T16:50:07.418Z,102215.38
2022-12-18T16:52:35.184Z,102217.53
2022-12-18T16:55:02.207Z,102219.75
2022-12-18T16:57:29.207Z,102225.22
2022-12-18T16:59:59.912Z,102240.03
2022-12-18T17:02:33.971Z,102231.47
2022-12-18T17:05:01.286Z,102235.13
2022-12-18T17:07:28.941Z,102235.59
2022-12-18T17:09:56.350Z,102240.44
2022-12-18T17:12:23.894Z,102233.25
2022-12-18T17:14:50.733Z,102232.13
2022-12-18T17:17:21.418Z,102230.72
2022-12-18T17:19:49.269Z,102234.94
2022-12-18T17:22:16.181Z,102230.78
2022-12-18T17:24:43.052Z,102235.72
2022-12-18T17:27:09.889Z,102227.66
2022-12-18T17:29:39.136Z,102235.41
2022-12-18T17:32:08.098Z,102228.31
2022-12-18T17:34:34.900Z,102233.63
2022-12-18T17:37:01.709Z,102237.78
2022-12-18T17:39:30.829Z,102232.84
2022-12-18T17:41:59.819Z,102231.44
2022-12-18T17:44:27.024Z,102233.31
2022-12-18T17:46:57.393Z,102234.72
2022-12-18T17:49:25.671Z,102224.81
2022-12-18T17:51:54.181Z,102242.13
2022-12-18T17:54:21.131Z,102238.91
2022-12-18T17:56:47.991Z,102242.28
2022-12-18T17:59:14.979Z,102248.41
2022-12-18T18:01:45.099Z,102252.28
2022-12-18T18:04:12.797Z,102250.78
2022-12-18T18:06:39.752Z,102251.88
2022-12-18T18:09:16.110Z,102256.09
2022-12-18T18:12:03.325Z,102252.25
2022-12-18T18:14:30.571Z,102246.38
2022-12-18T18:16:57.374Z,102253.00
2022-12-18T18:19:33.075Z,102252.22
2022-12-18T18:22:00.138Z,102254.31
2022-12-18T18:24:27.261Z,102250.78
2022-12-18T18:26:55.850Z,102254.63
2022-12-18T18:29:26.539Z,102253.19
2022-12-18T18:31:54.906Z,102267.56
2022-12-18T18:34:24.554Z,102262.09
2022-12-18T18:36:51.767Z,102261.53
2022-12-18T18:39:19.638Z,102263.75
2022-12-18T18:41:47.995Z,102273.28
2022-12-18T18:44:16.893Z,102268.59
2022-12-18T18:46:44.196Z,102264.84
2022-12-18T18:49:11.671Z,102270.19
2022-12-18T18:51:40.135Z,102268.16
2022-12-18T18:54:06.970Z,102259.69
2022-12-18T18:56:56.391Z,102259.44
2022-12-18T18:59:21.500Z,102264.28
2022-12-18T19:01:56.271Z,102267.75
2022-12-18T19:04:23.166Z,102273.00
2022-12-18T19:06:50.013Z,102275.63
2022-12-18T19:09:17.640Z,102290.72
2022-12-18T19:12:03.190Z,102279.88
2022-12-18T19:14:30.312Z,102291.28
2022-12-18T19:16:57.238Z,102281.34
2022-12-18T19:19:25.455Z,102281.56
2022-12-18T19:21:52.550Z,102276.19
2022-12-18T19:24:22.288Z,102275.34
2022-12-18T19:26:49.344Z,102274.63
2022-12-18T19:29:16.299Z,102271.31
2022-12-18T19:31:43.271Z,102277.34
2022-12-18T19:34:10.280Z,102275.94
2022-12-18T19:36:39.039Z,102270.72
2022-12-18T19:39:17.221Z,102274.25
2022-12-18T19:41:44.517Z,102274.78
2022-12-18T19:44:13.956Z,102269.94
2022-12-18T19:46:42.381Z,102277.16
2022-12-18T19:49:10.963Z,102286.13
2022-12-18T19:51:38.832Z,102286.97
2022-12-18T19:54:05.724Z,102280.59
2022-12-18T19:56:34.832Z,102291.09
2022-12-18T19:59:03.445Z,102288.69
2022-12-18T20:01:31.231Z,102297.59
2022-12-18T20:03:59.719Z,102297.00
2022-12-18T20:06:30.287Z,102299.28
2022-12-18T20:09:00.552Z,102294.25
2022-12-18T20:11:29.338Z,102296.31
2022-12-18T20:13:56.870Z,102289.19
2022-12-18T20:16:24.130Z,102295.34
2022-12-18T20:18:51.402Z,102298.19
2022-12-18T20:21:19.391Z,102297.34
2022-12-18T20:23:46.448Z,102293.09
2022-12-18T20:26:13.673Z,102291.41
2022-12-18T20:28:40.827Z,102286.31
2022-12-18T20:31:10.575Z,102297.88
2022-12-18T20:33:41.564Z,102297.47
2022-12-18T20:36:21.243Z,102292.66
2022-12-18T20:38:49.750Z,102291.47
2022-12-18T20:41:19.269Z,102301.75
2022-12-18T20:43:46.151Z,102286.50
2022-12-18T20:46:14.972Z,102292.53
2022-12-18T20:48:42.905Z,102294.59
2022-12-18T20:51:12.497Z,102304.25
2022-12-18T20:53:40.262Z,102308.41
2022-12-18T20:56:20.117Z,102306.06
2022-12-18T20:58:55.045Z,102306.63
2022-12-18T21:01:23.080Z,102304.06
2022-12-18T21:03:50.896Z,102308.41
2022-12-18T21:06:20.292Z,102310.13
2022-12-18T21:08:47.190Z,102310.97
2022-12-18T21:11:38.728Z,102314.91
2022-12-18T21:14:10.040Z,102312.63
2022-12-18T21:16:37.554Z,102306.91
2022-12-18T21:19:04.444Z,102302.44
2022-12-18T21:21:36.545Z,102290.97
2022-12-18T21:24:06.971Z,102301.91
2022-12-18T21:26:34.246Z,102301.16
2022-12-18T21:29:04.373Z,102297.78
2022-12-18T21:31:34.019Z,102293.69
2022-12-18T21:34:02.379Z,102289.28
2022-12-18T21:36:30.954Z,102298.97
2022-12-18T21:38:59.055Z,102300.59
2022-12-18T21:41:44.770Z,102290.75
2022-12-18T21:44:15.203Z,102290.84
2022-12-18T21:46:44.239Z,102289.25
2022-12-18T21:49:14.558Z,102286.28
2022-12-18T21:51:41.646Z,102291.66
2022-12-18T21:54:08.450Z,102294.09
2022-12-18T21:56:45.277Z,102301.00
2022-12-18T21:59:23.449Z,102293.66
2022-12-18T22:01:51.839Z,102287.22
2022-12-18T22:04:20.011Z,102293.94
2022-12-18T22:06:48.587Z,102285.34
2022-12-18T22:09:18.767Z,102283.66
2022-12-18T22:11:46.268Z,102280.06
2022-12-18T22:14:14.954Z,102280.06
2022-12-18T22:16:44.568Z,102274.50
2022-12-18T22:19:12.437Z,102289.06
2022-12-18T22:21:43.973Z,102277.22
2022-12-18T22:24:15.270Z,102281.59
2022-12-18T22:26:42.934Z,102283.28
2022-12-18T22:29:33.394Z,102277.34
2022-12-18T22:32:01.617Z,102279.38
2022-12-18T22:34:28.735Z,102274.53
2022-12-18T22:36:56.072Z,102269.34
2022-12-18T22:39:26.676Z,102271.41
2022-12-18T22:41:55.917Z,102272.13
2022-12-18T22:44:25.782Z,102278.88
2022-12-18T22:47:06.640Z,102282.88
2022-12-18T22:49:35.318Z,102275.56
2022-12-18T22:52:03.963Z,102284.06
2022-12-18T22:54:30.994Z,102282.44
2022-12-18T22:56:57.998Z,102286.25
2022-12-18T22:59:25.118Z,102280.28
2022-12-18T23:01:54.510Z,102276.56
2022-12-18T23:04:35.957Z,102279.88
2022-12-18T23:07:05.212Z,102281.16
2022-12-18T23:09:32.839Z,102281.56
2022-12-18T23:11:59.816Z,102275.59
2022-12-18T23:14:27.711Z,102282.56
2022-12-18T23:16:54.564Z,102284.78
2022-12-18T23:19:22.672Z,102279.81
2022-12-18T23:21:51.365Z,102282.00
2022-12-18T23:24:18.454Z,102281.56
2022-12-18T23:26:45.279Z,102278.31
2022-12-18T23:29:12.164Z,102280.78
2022-12-18T23:31:40.010Z,102291.34
2022-12-18T23:34:08.063Z,102290.56
2022-12-18T23:36:45.236Z,102286.06
2022-12-18T23:39:20.889Z,102285.53
2022-12-18T23:42:00.817Z,102298.09
2022-12-18T23:44:28.268Z,102297.25
2022-12-18T23:46:55.542Z,102288.78
2022-12-18T23:49:22.494Z,102298.31
2022-12-18T23:51:49.763Z,102300.72
2022-12-18T23:54:16.674Z,102301.91
2022-12-18T23:56:43.507Z,102298.66
2022-12-18T23:59:10.586Z,102290.06
